sensor_id;sensor_type;location;lat;lon;timestamp;P1;durP1;ratioP1;P2;durP2;ratioP2
55483;SDS011;41345;51.704;5.146;2023-05-10T00:01:01;128.87;;;117.00;;
55483;SDS011;41345;51.704;5.146;2023-05-10T00:06:02;131.85;;;118.63;;
55483;SDS011;41345;51.704;5.146;2023-05-10T00:11:02;130.13;;;117.70;;
55483;SDS011;41345;51.704;5.146;2023-05-10T00:16:03;131.85;;;118.97;;
55483;SDS011;41345;51.704;5.146;2023-05-10T00:21:03;131.73;;;119.23;;
55483;SDS011;41345;51.704;5.146;2023-05-10T00:26:04;126.93;;;114.95;;
55483;SDS011;41345;51.704;5.146;2023-05-10T00:31:04;125.87;;;114.63;;
55483;SDS011;41345;51.704;5.146;2023-05-10T00:36:04;131.60;;;118.40;;
55483;SDS011;41345;51.704;5.146;2023-05-10T00:41:07;138.73;;;125.30;;
55483;SDS011;41345;51.704;5.146;2023-05-10T00:46:08;131.35;;;118.97;;
55483;SDS011;41345;51.704;5.146;2023-05-10T00:51:08;127.47;;;114.93;;
55483;SDS011;41345;51.704;5.146;2023-05-10T00:56:08;128.48;;;116.13;;
55483;SDS011;41345;51.704;5.146;2023-05-10T01:01:09;135.93;;;122.10;;
55483;SDS011;41345;51.704;5.146;2023-05-10T01:06:09;131.23;;;118.00;;
55483;SDS011;41345;51.704;5.146;2023-05-10T01:11:10;129.18;;;116.45;;
55483;SDS011;41345;51.704;5.146;2023-05-10T01:16:10;126.80;;;114.00;;
55483;SDS011;41345;51.704;5.146;2023-05-10T01:36:54;126.20;;;112.53;;
55483;SDS011;41345;51.704;5.146;2023-05-10T01:42:01;128.85;;;115.30;;
55483;SDS011;41345;51.704;5.146;2023-05-10T01:47:17;121.53;;;109.60;;
55483;SDS011;41345;51.704;5.146;2023-05-10T01:52:19;128.00;;;114.50;;
55483;SDS011;41345;51.704;5.146;2023-05-10T01:57:22;118.63;;;107.53;;
55483;SDS011;41345;51.704;5.146;2023-05-10T02:02:26;122.70;;;111.43;;
55483;SDS011;41345;51.704;5.146;2023-05-10T02:07:28;125.95;;;107.38;;
55483;SDS011;41345;51.704;5.146;2023-05-10T02:12:28;117.13;;;105.72;;
55483;SDS011;41345;51.704;5.146;2023-05-10T02:17:30;119.80;;;107.40;;
55483;SDS011;41345;51.704;5.146;2023-05-10T02:22:31;127.03;;;115.10;;
55483;SDS011;41345;51.704;5.146;2023-05-10T02:27:31;128.90;;;115.28;;
55483;SDS011;41345;51.704;5.146;2023-05-10T02:32:32;124.38;;;112.20;;
55483;SDS011;41345;51.704;5.146;2023-05-10T02:37:33;127.35;;;114.82;;
55483;SDS011;41345;51.704;5.146;2023-05-10T02:42:35;138.80;;;121.90;;
55483;SDS011;41345;51.704;5.146;2023-05-10T02:47:35;152.52;;;124.97;;
55483;SDS011;41345;51.704;5.146;2023-05-10T02:52:40;167.48;;;126.20;;
55483;SDS011;41345;51.704;5.146;2023-05-10T02:57:43;160.15;;;131.15;;
55483;SDS011;41345;51.704;5.146;2023-05-10T03:02:44;157.20;;;127.38;;
55483;SDS011;41345;51.704;5.146;2023-05-10T03:07:44;146.75;;;129.88;;
55483;SDS011;41345;51.704;5.146;2023-05-10T03:18:12;144.30;;;124.20;;
55483;SDS011;41345;51.704;5.146;2023-05-10T03:28:24;137.57;;;121.50;;
55483;SDS011;41345;51.704;5.146;2023-05-10T03:33:26;129.80;;;116.25;;
55483;SDS011;41345;51.704;5.146;2023-05-10T03:38:27;139.18;;;123.90;;
55483;SDS011;41345;51.704;5.146;2023-05-10T03:43:27;135.80;;;121.13;;
55483;SDS011;41345;51.704;5.146;2023-05-10T03:48:27;129.80;;;115.80;;
55483;SDS011;41345;51.704;5.146;2023-05-10T03:53:28;136.07;;;120.22;;
55483;SDS011;41345;51.704;5.146;2023-05-10T03:58:28;132.35;;;118.45;;
55483;SDS011;41345;51.704;5.146;2023-05-10T04:03:28;137.43;;;122.30;;
55483;SDS011;41345;51.704;5.146;2023-05-10T04:08:28;137.25;;;122.45;;
55483;SDS011;41345;51.704;5.146;2023-05-10T04:13:29;137.18;;;123.07;;
55483;SDS011;41345;51.704;5.146;2023-05-10T04:18:30;136.20;;;122.15;;
55483;SDS011;41345;51.704;5.146;2023-05-10T04:23:30;136.82;;;122.60;;
55483;SDS011;41345;51.704;5.146;2023-05-10T04:28:31;135.25;;;120.55;;
55483;SDS011;41345;51.704;5.146;2023-05-10T04:33:31;134.77;;;120.15;;
55483;SDS011;41345;51.704;5.146;2023-05-10T04:38:31;129.80;;;115.50;;
55483;SDS011;41345;51.704;5.146;2023-05-10T04:43:32;137.80;;;121.47;;
55483;SDS011;41345;51.704;5.146;2023-05-10T04:48:32;133.52;;;118.65;;
55483;SDS011;41345;51.704;5.146;2023-05-10T04:53:33;135.23;;;116.67;;
55483;SDS011;41345;51.704;5.146;2023-05-10T04:58:33;129.90;;;116.67;;
55483;SDS011;41345;51.704;5.146;2023-05-10T05:03:33;132.23;;;118.68;;
55483;SDS011;41345;51.704;5.146;2023-05-10T05:08:34;122.28;;;110.80;;
55483;SDS011;41345;51.704;5.146;2023-05-10T05:13:34;123.13;;;111.50;;
55483;SDS011;41345;51.704;5.146;2023-05-10T05:18:34;121.45;;;110.30;;
55483;SDS011;41345;51.704;5.146;2023-05-10T05:23:35;119.97;;;108.55;;
55483;SDS011;41345;51.704;5.146;2023-05-10T05:28:35;121.10;;;109.50;;
55483;SDS011;41345;51.704;5.146;2023-05-10T05:33:37;126.45;;;113.82;;
55483;SDS011;41345;51.704;5.146;2023-05-10T05:38:37;120.70;;;109.03;;
55483;SDS011;41345;51.704;5.146;2023-05-10T05:43:37;120.68;;;109.47;;
55483;SDS011;41345;51.704;5.146;2023-05-10T05:48:38;115.80;;;104.50;;
55483;SDS011;41345;51.704;5.146;2023-05-10T05:53:38;117.43;;;106.40;;
55483;SDS011;41345;51.704;5.146;2023-05-10T05:58:38;117.40;;;106.10;;
55483;SDS011;41345;51.704;5.146;2023-05-10T06:03:39;120.32;;;108.53;;
55483;SDS011;41345;51.704;5.146;2023-05-10T06:08:39;117.37;;;105.73;;
55483;SDS011;41345;51.704;5.146;2023-05-10T06:13:39;126.00;;;112.97;;
55483;SDS011;41345;51.704;5.146;2023-05-10T06:18:40;123.90;;;111.57;;
55483;SDS011;41345;51.704;5.146;2023-05-10T06:23:40;116.47;;;105.87;;
55483;SDS011;41345;51.704;5.146;2023-05-10T06:28:40;119.40;;;107.80;;
55483;SDS011;41345;51.704;5.146;2023-05-10T06:33:41;121.55;;;110.18;;
55483;SDS011;41345;51.704;5.146;2023-05-10T06:38:41;118.40;;;107.72;;
55483;SDS011;41345;51.704;5.146;2023-05-10T06:43:41;116.05;;;106.20;;
55483;SDS011;41345;51.704;5.146;2023-05-10T06:48:43;115.35;;;105.32;;
55483;SDS011;41345;51.704;5.146;2023-05-10T06:53:43;112.80;;;102.53;;
55483;SDS011;41345;51.704;5.146;2023-05-10T06:58:43;114.30;;;104.50;;
55483;SDS011;41345;51.704;5.146;2023-05-10T07:03:44;128.10;;;116.55;;
55483;SDS011;41345;51.704;5.146;2023-05-10T07:08:44;121.83;;;110.97;;
55483;SDS011;41345;51.704;5.146;2023-05-10T07:13:44;127.05;;;115.10;;
55483;SDS011;41345;51.704;5.146;2023-05-10T07:18:46;122.78;;;111.25;;
55483;SDS011;41345;51.704;5.146;2023-05-10T07:23:46;122.22;;;110.80;;
55483;SDS011;41345;51.704;5.146;2023-05-10T07:28:47;118.80;;;107.75;;
55483;SDS011;41345;51.704;5.146;2023-05-10T07:33:47;125.07;;;113.27;;
55483;SDS011;41345;51.704;5.146;2023-05-10T07:38:47;117.00;;;105.97;;
55483;SDS011;41345;51.704;5.146;2023-05-10T07:43:49;106.90;;;97.40;;
55483;SDS011;41345;51.704;5.146;2023-05-10T07:48:49;86.60;;;79.87;;
55483;SDS011;41345;51.704;5.146;2023-05-10T07:53:50;81.07;;;74.57;;
55483;SDS011;41345;51.704;5.146;2023-05-10T07:58:50;81.13;;;74.57;;
55483;SDS011;41345;51.704;5.146;2023-05-10T08:03:53;73.95;;;68.43;;
55483;SDS011;41345;51.704;5.146;2023-05-10T08:08:53;71.68;;;66.80;;
55483;SDS011;41345;51.704;5.146;2023-05-10T08:13:57;65.95;;;61.38;;
55483;SDS011;41345;51.704;5.146;2023-05-10T08:18:57;64.77;;;60.30;;
55483;SDS011;41345;51.704;5.146;2023-05-10T08:23:57;69.70;;;64.95;;
55483;SDS011;41345;51.704;5.146;2023-05-10T08:28:58;63.55;;;59.00;;
55483;SDS011;41345;51.704;5.146;2023-05-10T08:33:58;58.88;;;54.83;;
55483;SDS011;41345;51.704;5.146;2023-05-10T08:38:58;52.35;;;48.97;;
55483;SDS011;41345;51.704;5.146;2023-05-10T08:43:59;63.50;;;59.13;;
55483;SDS011;41345;51.704;5.146;2023-05-10T08:54:04;65.47;;;61.03;;
55483;SDS011;41345;51.704;5.146;2023-05-10T08:59:05;65.85;;;61.13;;
55483;SDS011;41345;51.704;5.146;2023-05-10T09:04:05;67.70;;;63.03;;
55483;SDS011;41345;51.704;5.146;2023-05-10T09:09:06;59.35;;;55.65;;
55483;SDS011;41345;51.704;5.146;2023-05-10T09:14:06;64.13;;;59.72;;
55483;SDS011;41345;51.704;5.146;2023-05-10T09:19:07;53.08;;;49.72;;
55483;SDS011;41345;51.704;5.146;2023-05-10T09:24:08;62.42;;;58.22;;
55483;SDS011;41345;51.704;5.146;2023-05-10T09:29:09;63.65;;;59.25;;
55483;SDS011;41345;51.704;5.146;2023-05-10T09:34:09;61.30;;;57.40;;
55483;SDS011;41345;51.704;5.146;2023-05-10T09:39:10;55.08;;;51.72;;
55483;SDS011;41345;51.704;5.146;2023-05-10T09:44:10;65.28;;;60.80;;
55483;SDS011;41345;51.704;5.146;2023-05-10T09:49:13;63.50;;;59.20;;
55483;SDS011;41345;51.704;5.146;2023-05-10T09:54:15;61.77;;;57.47;;
55483;SDS011;41345;51.704;5.146;2023-05-10T09:59:15;52.20;;;48.70;;
55483;SDS011;41345;51.704;5.146;2023-05-10T10:04:17;55.10;;;51.50;;
55483;SDS011;41345;51.704;5.146;2023-05-10T10:09:17;51.72;;;48.25;;
55483;SDS011;41345;51.704;5.146;2023-05-10T10:14:18;60.45;;;56.53;;
55483;SDS011;41345;51.704;5.146;2023-05-10T10:19:19;59.30;;;55.20;;
55483;SDS011;41345;51.704;5.146;2023-05-10T10:24:20;58.97;;;55.22;;
55483;SDS011;41345;51.704;5.146;2023-05-10T10:29:32;58.90;;;55.15;;
55483;SDS011;41345;51.704;5.146;2023-05-10T10:34:34;61.00;;;57.07;;
55483;SDS011;41345;51.704;5.146;2023-05-10T10:39:35;57.15;;;53.45;;
55483;SDS011;41345;51.704;5.146;2023-05-10T10:44:37;61.35;;;57.47;;
55483;SDS011;41345;51.704;5.146;2023-05-10T10:50:23;61.00;;;57.00;;
55483;SDS011;41345;51.704;5.146;2023-05-10T11:00:18;48.75;;;45.60;;
55483;SDS011;41345;51.704;5.146;2023-05-10T11:06:01;49.47;;;46.38;;
55483;SDS011;41345;51.704;5.146;2023-05-10T11:15:52;25.38;;;23.55;;
55483;SDS011;41345;51.704;5.146;2023-05-10T11:20:57;51.78;;;48.47;;
55483;SDS011;41345;51.704;5.146;2023-05-10T11:25:59;33.60;;;31.15;;
55483;SDS011;41345;51.704;5.146;2023-05-10T11:30:59;52.53;;;48.95;;
55483;SDS011;41345;51.704;5.146;2023-05-10T11:36:00;32.03;;;29.70;;
55483;SDS011;41345;51.704;5.146;2023-05-10T11:41:00;32.58;;;30.27;;
55483;SDS011;41345;51.704;5.146;2023-05-10T11:46:00;40.03;;;37.13;;
55483;SDS011;41345;51.704;5.146;2023-05-10T11:51:01;43.37;;;40.47;;
55483;SDS011;41345;51.704;5.146;2023-05-10T11:56:02;35.88;;;33.38;;
55483;SDS011;41345;51.704;5.146;2023-05-10T12:01:03;27.05;;;25.15;;
55483;SDS011;41345;51.704;5.146;2023-05-10T12:06:04;26.77;;;24.77;;
55483;SDS011;41345;51.704;5.146;2023-05-10T12:11:08;39.90;;;37.40;;
55483;SDS011;41345;51.704;5.146;2023-05-10T12:21:12;42.38;;;39.92;;
55483;SDS011;41345;51.704;5.146;2023-05-10T12:26:12;48.25;;;45.42;;
55483;SDS011;41345;51.704;5.146;2023-05-10T12:31:13;50.45;;;47.75;;
55483;SDS011;41345;51.704;5.146;2023-05-10T12:36:13;49.85;;;46.95;;
55483;SDS011;41345;51.704;5.146;2023-05-10T12:41:15;63.00;;;58.95;;
55483;SDS011;41345;51.704;5.146;2023-05-10T12:46:16;48.00;;;44.88;;
55483;SDS011;41345;51.704;5.146;2023-05-10T12:51:17;51.55;;;48.28;;
55483;SDS011;41345;51.704;5.146;2023-05-10T12:56:20;52.67;;;49.33;;
55483;SDS011;41345;51.704;5.146;2023-05-10T13:01:21;51.73;;;48.57;;
55483;SDS011;41345;51.704;5.146;2023-05-10T13:06:21;48.10;;;44.90;;
55483;SDS011;41345;51.704;5.146;2023-05-10T13:11:21;46.42;;;43.55;;
55483;SDS011;41345;51.704;5.146;2023-05-10T13:16:22;41.60;;;38.85;;
55483;SDS011;41345;51.704;5.146;2023-05-10T13:21:22;36.90;;;34.50;;
55483;SDS011;41345;51.704;5.146;2023-05-10T13:26:24;46.33;;;43.38;;
55483;SDS011;41345;51.704;5.146;2023-05-10T13:31:25;49.33;;;46.35;;
55483;SDS011;41345;51.704;5.146;2023-05-10T13:36:25;49.22;;;46.10;;
55483;SDS011;41345;51.704;5.146;2023-05-10T13:41:26;47.25;;;44.53;;
55483;SDS011;41345;51.704;5.146;2023-05-10T13:46:26;31.92;;;29.80;;
55483;SDS011;41345;51.704;5.146;2023-05-10T13:51:27;33.90;;;31.67;;
55483;SDS011;41345;51.704;5.146;2023-05-10T13:56:27;30.65;;;28.70;;
55483;SDS011;41345;51.704;5.146;2023-05-10T14:01:28;46.45;;;43.45;;
55483;SDS011;41345;51.704;5.146;2023-05-10T14:06:28;36.53;;;34.43;;
55483;SDS011;41345;51.704;5.146;2023-05-10T14:11:28;29.02;;;27.02;;
55483;SDS011;41345;51.704;5.146;2023-05-10T14:16:29;24.63;;;22.67;;
55483;SDS011;41345;51.704;5.146;2023-05-10T14:21:29;24.73;;;23.02;;
55483;SDS011;41345;51.704;5.146;2023-05-10T14:26:30;21.08;;;19.70;;
55483;SDS011;41345;51.704;5.146;2023-05-10T14:31:31;26.85;;;25.15;;
55483;SDS011;41345;51.704;5.146;2023-05-10T14:36:31;22.30;;;20.90;;
55483;SDS011;41345;51.704;5.146;2023-05-10T14:41:32;29.37;;;27.57;;
55483;SDS011;41345;51.704;5.146;2023-05-10T14:46:32;33.13;;;31.23;;
55483;SDS011;41345;51.704;5.146;2023-05-10T14:51:34;25.85;;;23.90;;
55483;SDS011;41345;51.704;5.146;2023-05-10T14:56:36;39.20;;;36.78;;
55483;SDS011;41345;51.704;5.146;2023-05-10T15:01:37;33.72;;;31.73;;
55483;SDS011;41345;51.704;5.146;2023-05-10T15:06:38;20.70;;;19.20;;
55483;SDS011;41345;51.704;5.146;2023-05-10T15:11:38;20.00;;;18.50;;
55483;SDS011;41345;51.704;5.146;2023-05-10T15:16:38;9.43;;;8.52;;
55483;SDS011;41345;51.704;5.146;2023-05-10T15:21:39;9.88;;;8.85;;
55483;SDS011;41345;51.704;5.146;2023-05-10T15:26:42;20.08;;;18.80;;
55483;SDS011;41345;51.704;5.146;2023-05-10T15:31:42;51.22;;;47.92;;
55483;SDS011;41345;51.704;5.146;2023-05-10T15:36:42;44.93;;;41.67;;
55483;SDS011;41345;51.704;5.146;2023-05-10T15:41:46;59.23;;;55.53;;
55483;SDS011;41345;51.704;5.146;2023-05-10T15:46:47;60.30;;;56.47;;
55483;SDS011;41345;51.704;5.146;2023-05-10T15:51:47;45.55;;;42.45;;
55483;SDS011;41345;51.704;5.146;2023-05-10T15:56:48;40.17;;;37.63;;
55483;SDS011;41345;51.704;5.146;2023-05-10T16:01:48;49.65;;;46.30;;
55483;SDS011;41345;51.704;5.146;2023-05-10T16:06:49;58.03;;;54.13;;
55483;SDS011;41345;51.704;5.146;2023-05-10T16:11:50;39.60;;;36.50;;
55483;SDS011;41345;51.704;5.146;2023-05-10T16:16:50;41.28;;;38.28;;
55483;SDS011;41345;51.704;5.146;2023-05-10T16:21:51;40.30;;;37.50;;
55483;SDS011;41345;51.704;5.146;2023-05-10T16:26:51;48.97;;;45.78;;
55483;SDS011;41345;51.704;5.146;2023-05-10T16:31:52;37.80;;;35.30;;
55483;SDS011;41345;51.704;5.146;2023-05-10T16:36:52;41.53;;;38.90;;
55483;SDS011;41345;51.704;5.146;2023-05-10T16:41:53;39.88;;;37.40;;
55483;SDS011;41345;51.704;5.146;2023-05-10T16:46:53;52.75;;;49.65;;
55483;SDS011;41345;51.704;5.146;2023-05-10T16:51:54;47.40;;;44.42;;
55483;SDS011;41345;51.704;5.146;2023-05-10T16:56:54;49.70;;;46.73;;
55483;SDS011;41345;51.704;5.146;2023-05-10T17:01:54;58.90;;;55.30;;
55483;SDS011;41345;51.704;5.146;2023-05-10T17:06:55;65.67;;;61.67;;
55483;SDS011;41345;51.704;5.146;2023-05-10T17:11:55;80.93;;;75.72;;
55483;SDS011;41345;51.704;5.146;2023-05-10T17:16:55;77.63;;;72.57;;
55483;SDS011;41345;51.704;5.146;2023-05-10T17:21:56;77.50;;;72.70;;
55483;SDS011;41345;51.704;5.146;2023-05-10T17:26:56;81.43;;;76.18;;
55483;SDS011;41345;51.704;5.146;2023-05-10T17:31:57;79.88;;;74.88;;
55483;SDS011;41345;51.704;5.146;2023-05-10T17:36:57;71.50;;;66.63;;
55483;SDS011;41345;51.704;5.146;2023-05-10T17:41:57;77.35;;;72.47;;
55483;SDS011;41345;51.704;5.146;2023-05-10T17:46:58;74.82;;;70.13;;
55483;SDS011;41345;51.704;5.146;2023-05-10T17:51:59;73.15;;;68.22;;
55483;SDS011;41345;51.704;5.146;2023-05-10T17:56:59;68.47;;;63.90;;
55483;SDS011;41345;51.704;5.146;2023-05-10T18:02:00;75.00;;;70.18;;
55483;SDS011;41345;51.704;5.146;2023-05-10T18:07:00;79.65;;;74.32;;
55483;SDS011;41345;51.704;5.146;2023-05-10T18:12:01;78.40;;;72.97;;
55483;SDS011;41345;51.704;5.146;2023-05-10T18:17:02;84.40;;;78.43;;
55483;SDS011;41345;51.704;5.146;2023-05-10T18:22:02;87.70;;;81.87;;
55483;SDS011;41345;51.704;5.146;2023-05-10T18:27:03;86.22;;;80.15;;
55483;SDS011;41345;51.704;5.146;2023-05-10T18:32:05;80.55;;;74.97;;
55483;SDS011;41345;51.704;5.146;2023-05-10T18:37:05;75.20;;;70.00;;
55483;SDS011;41345;51.704;5.146;2023-05-10T18:42:07;86.45;;;80.60;;
55483;SDS011;41345;51.704;5.146;2023-05-10T18:47:07;87.22;;;81.15;;
55483;SDS011;41345;51.704;5.146;2023-05-10T18:52:08;79.10;;;73.80;;
55483;SDS011;41345;51.704;5.146;2023-05-10T18:57:08;79.53;;;73.65;;
55483;SDS011;41345;51.704;5.146;2023-05-10T19:02:08;76.40;;;71.28;;
55483;SDS011;41345;51.704;5.146;2023-05-10T19:07:09;80.78;;;75.30;;
55483;SDS011;41345;51.704;5.146;2023-05-10T19:12:10;80.00;;;74.55;;
55483;SDS011;41345;51.704;5.146;2023-05-10T19:17:10;71.45;;;66.32;;
55483;SDS011;41345;51.704;5.146;2023-05-10T19:22:10;80.28;;;74.78;;
55483;SDS011;41345;51.704;5.146;2023-05-10T19:27:11;77.93;;;72.60;;
55483;SDS011;41345;51.704;5.146;2023-05-10T19:32:11;76.30;;;71.20;;
55483;SDS011;41345;51.704;5.146;2023-05-10T19:37:12;74.22;;;69.07;;
55483;SDS011;41345;51.704;5.146;2023-05-10T19:42:12;72.87;;;67.97;;
55483;SDS011;41345;51.704;5.146;2023-05-10T19:47:12;77.72;;;72.10;;
55483;SDS011;41345;51.704;5.146;2023-05-10T19:52:13;76.75;;;71.85;;
55483;SDS011;41345;51.704;5.146;2023-05-10T19:57:14;72.03;;;67.28;;
55483;SDS011;41345;51.704;5.146;2023-05-10T20:02:14;72.05;;;67.55;;
55483;SDS011;41345;51.704;5.146;2023-05-10T20:07:15;77.27;;;72.13;;
55483;SDS011;41345;51.704;5.146;2023-05-10T20:12:15;75.72;;;70.38;;
55483;SDS011;41345;51.704;5.146;2023-05-10T20:17:15;79.00;;;74.07;;
55483;SDS011;41345;51.704;5.146;2023-05-10T20:22:16;77.68;;;72.57;;
55483;SDS011;41345;51.704;5.146;2023-05-10T20:27:16;73.68;;;69.00;;
55483;SDS011;41345;51.704;5.146;2023-05-10T20:32:16;76.03;;;71.07;;
55483;SDS011;41345;51.704;5.146;2023-05-10T20:37:17;71.90;;;67.37;;
55483;SDS011;41345;51.704;5.146;2023-05-10T20:42:17;70.53;;;65.78;;
55483;SDS011;41345;51.704;5.146;2023-05-10T20:47:17;86.38;;;80.65;;
55483;SDS011;41345;51.704;5.146;2023-05-10T20:52:18;86.55;;;80.65;;
55483;SDS011;41345;51.704;5.146;2023-05-10T20:57:18;78.47;;;73.22;;
55483;SDS011;41345;51.704;5.146;2023-05-10T21:02:19;83.35;;;77.85;;
55483;SDS011;41345;51.704;5.146;2023-05-10T21:07:19;82.45;;;76.85;;
55483;SDS011;41345;51.704;5.146;2023-05-10T21:12:19;79.18;;;73.68;;
55483;SDS011;41345;51.704;5.146;2023-05-10T21:17:20;90.97;;;85.00;;
55483;SDS011;41345;51.704;5.146;2023-05-10T21:22:20;87.82;;;81.25;;
55483;SDS011;41345;51.704;5.146;2023-05-10T21:27:20;97.18;;;90.25;;
55483;SDS011;41345;51.704;5.146;2023-05-10T21:32:21;92.80;;;86.07;;
55483;SDS011;41345;51.704;5.146;2023-05-10T21:37:21;90.35;;;83.80;;
55483;SDS011;41345;51.704;5.146;2023-05-10T21:42:21;95.25;;;88.22;;
55483;SDS011;41345;51.704;5.146;2023-05-10T21:47:22;93.60;;;86.53;;
55483;SDS011;41345;51.704;5.146;2023-05-10T21:52:22;98.73;;;91.23;;
55483;SDS011;41345;51.704;5.146;2023-05-10T21:57:22;93.95;;;86.90;;
55483;SDS011;41345;51.704;5.146;2023-05-10T22:02:22;90.35;;;83.47;;
55483;SDS011;41345;51.704;5.146;2023-05-10T22:07:23;91.55;;;84.57;;
55483;SDS011;41345;51.704;5.146;2023-05-10T22:12:23;90.07;;;83.47;;
55483;SDS011;41345;51.704;5.146;2023-05-10T22:17:24;89.80;;;83.07;;
55483;SDS011;41345;51.704;5.146;2023-05-10T22:22:25;85.07;;;78.40;;
55483;SDS011;41345;51.704;5.146;2023-05-10T22:27:25;91.78;;;85.43;;
55483;SDS011;41345;51.704;5.146;2023-05-10T22:32:25;105.43;;;97.57;;
55483;SDS011;41345;51.704;5.146;2023-05-10T22:37:26;95.45;;;88.55;;
55483;SDS011;41345;51.704;5.146;2023-05-10T22:42:26;106.60;;;98.50;;
55483;SDS011;41345;51.704;5.146;2023-05-10T22:47:26;96.72;;;89.50;;
55483;SDS011;41345;51.704;5.146;2023-05-10T22:52:27;107.15;;;99.35;;
55483;SDS011;41345;51.704;5.146;2023-05-10T22:57:27;105.90;;;97.70;;
55483;SDS011;41345;51.704;5.146;2023-05-10T23:02:27;105.57;;;97.57;;
55483;SDS011;41345;51.704;5.146;2023-05-10T23:07:28;105.13;;;96.43;;
55483;SDS011;41345;51.704;5.146;2023-05-10T23:12:28;105.32;;;97.15;;
55483;SDS011;41345;51.704;5.146;2023-05-10T23:17:30;98.75;;;90.70;;
55483;SDS011;41345;51.704;5.146;2023-05-10T23:22:30;103.30;;;95.07;;
55483;SDS011;41345;51.704;5.146;2023-05-10T23:27:31;103.43;;;95.93;;
55483;SDS011;41345;51.704;5.146;2023-05-10T23:32:31;107.95;;;99.82;;
55483;SDS011;41345;51.704;5.146;2023-05-10T23:37:32;106.68;;;98.68;;
55483;SDS011;41345;51.704;5.146;2023-05-10T23:42:32;109.28;;;100.75;;
55483;SDS011;41345;51.704;5.146;2023-05-10T23:47:32;103.50;;;95.47;;
55483;SDS011;41345;51.704;5.146;2023-05-10T23:52:33;100.20;;;92.28;;
55483;SDS011;41345;51.704;5.146;2023-05-10T23:57:33;100.88;;;92.55;;
